createdAt,value
2018-11-10T00:00:42.389Z,19.40
2018-11-10T00:01:42.381Z,20.20
2018-11-10T00:02:42.361Z,20.00
2018-11-10T00:03:42.353Z,20.30
2018-11-10T00:04:42.342Z,19.70
2018-11-10T00:05:42.332Z,19.40
2018-11-10T00:06:42.368Z,20.30
2018-11-10T00:07:42.317Z,20.00
2018-11-10T00:08:42.304Z,20.40
2018-11-10T00:09:42.300Z,20.50
2018-11-10T00:10:42.278Z,19.90
2018-11-10T00:11:42.294Z,20.40
2018-11-10T00:12:42.254Z,19.70
2018-11-10T00:13:42.238Z,20.60
2018-11-10T00:14:42.239Z,20.10
2018-11-10T00:15:42.220Z,20.80
2018-11-10T00:16:42.328Z,19.70
2018-11-10T00:17:42.194Z,21.70
2018-11-10T00:18:42.206Z,20.30
2018-11-10T00:19:42.170Z,21.50
2018-11-10T00:20:42.181Z,20.00
2018-11-10T00:21:42.163Z,20.30
2018-11-10T00:22:42.199Z,20.60
2018-11-10T00:23:42.129Z,20.40
2018-11-10T00:24:42.115Z,20.40
2018-11-10T00:25:42.114Z,20.00
2018-11-10T00:26:42.097Z,20.00
2018-11-10T00:27:42.104Z,21.30
2018-11-10T00:28:42.110Z,20.90
2018-11-10T00:29:42.062Z,20.90
2018-11-10T00:30:42.052Z,21.20
2018-11-10T00:31:42.039Z,21.40
2018-11-10T00:32:42.052Z,20.60
2018-11-10T00:33:42.040Z,21.30
2018-11-10T00:34:42.054Z,21.40
2018-11-10T00:35:41.998Z,21.40
2018-11-10T00:36:42.026Z,21.20
2018-11-10T00:37:41.988Z,21.20
2018-11-10T00:38:41.972Z,20.60
2018-11-10T00:39:41.957Z,20.40
2018-11-10T00:40:41.937Z,21.90
2018-11-10T00:41:41.924Z,21.60
2018-11-10T00:42:41.935Z,21.10
2018-11-10T00:43:41.931Z,21.70
2018-11-10T00:44:41.887Z,21.40
2018-11-10T00:45:41.884Z,21.60
2018-11-10T00:46:41.866Z,22.80
2018-11-10T00:47:41.859Z,22.30
2018-11-10T00:48:41.867Z,21.90
2018-11-10T00:49:41.846Z,22.20
2018-11-10T00:50:41.826Z,22.20
2018-11-10T00:51:41.831Z,21.60
2018-11-10T00:52:41.803Z,21.80
2018-11-10T00:53:41.816Z,21.00
2018-11-10T00:54:41.799Z,22.20
2018-11-10T00:55:41.763Z,22.60
2018-11-10T00:56:41.760Z,22.30
2018-11-10T00:57:41.752Z,21.60
2018-11-10T00:58:41.790Z,21.80
2018-11-10T00:59:41.755Z,22.30
2018-11-10T01:00:41.718Z,21.90
2018-11-10T01:01:41.697Z,22.00
2018-11-10T01:02:41.693Z,22.00
2018-11-10T01:03:50.997Z,22.90
2018-11-10T01:04:41.962Z,22.60
2018-11-10T01:05:41.755Z,22.90
2018-11-10T01:06:41.710Z,22.00
2018-11-10T01:07:41.781Z,23.80
2018-11-10T01:08:41.691Z,22.90
2018-11-10T01:09:41.628Z,22.30
2018-11-10T01:10:41.628Z,22.50
2018-11-10T01:11:41.619Z,23.20
2018-11-10T01:12:41.645Z,23.00
2018-11-10T01:13:41.615Z,22.50
2018-11-10T01:14:41.613Z,23.80
2018-11-10T01:15:41.657Z,22.60
2018-11-10T01:16:41.613Z,23.40
2018-11-10T01:17:41.529Z,23.00
2018-11-10T01:18:41.511Z,23.80
2018-11-10T01:19:41.494Z,22.70
2018-11-10T01:20:41.498Z,22.60
2018-11-10T01:21:41.495Z,23.10
2018-11-10T01:22:41.527Z,22.40
2018-11-10T01:23:41.453Z,23.00
2018-11-10T01:24:41.438Z,23.00
2018-11-10T01:25:41.434Z,23.60
2018-11-10T01:26:41.431Z,23.20
2018-11-10T01:27:41.429Z,24.00
2018-11-10T01:28:41.403Z,22.50
2018-11-10T01:29:41.407Z,22.60
2018-11-10T01:30:41.375Z,23.30
2018-11-10T01:31:41.384Z,24.90
2018-11-10T01:32:41.350Z,23.30
2018-11-10T01:33:41.429Z,24.40
2018-11-10T01:34:41.360Z,23.10
2018-11-10T01:35:41.336Z,23.90
2018-11-10T01:36:41.313Z,24.20
2018-11-10T01:37:41.303Z,23.50
2018-11-10T01:38:41.293Z,24.00
2018-11-10T01:39:41.326Z,23.30
2018-11-10T01:40:41.302Z,23.30
2018-11-10T01:41:41.255Z,23.10
2018-11-10T01:42:41.245Z,23.10
2018-11-10T01:43:41.234Z,23.00
2018-11-10T01:44:41.249Z,22.70
2018-11-10T01:45:41.229Z,23.00
2018-11-10T01:46:41.210Z,23.70
2018-11-10T01:47:41.182Z,24.40
2018-11-10T01:48:41.239Z,24.00
2018-11-10T01:49:41.163Z,22.80
2018-11-10T01:50:41.169Z,22.90
2018-11-10T01:51:41.169Z,22.80
2018-11-10T01:52:41.124Z,22.70
2018-11-10T01:53:41.116Z,22.90
2018-11-10T01:54:41.120Z,22.70
2018-11-10T01:55:41.119Z,22.40
2018-11-10T01:56:41.129Z,21.10
2018-11-10T01:57:41.109Z,22.00
2018-11-10T01:58:41.075Z,21.30
2018-11-10T01:59:41.058Z,19.70
2018-11-10T02:00:41.141Z,21.00
2018-11-10T02:01:41.036Z,19.60
2018-11-10T02:02:41.020Z,19.00
2018-11-10T02:03:41.007Z,19.20
2018-11-10T02:04:41.017Z,18.90
2018-11-10T02:05:40.992Z,18.90
2018-11-10T02:06:41.069Z,18.80
2018-11-10T02:07:40.984Z,18.90
2018-11-10T02:08:40.950Z,18.20
2018-11-10T02:09:40.943Z,18.60
2018-11-10T02:10:40.935Z,17.40
2018-11-10T02:11:41.003Z,17.70
2018-11-10T02:12:40.913Z,17.80
2018-11-10T02:13:40.930Z,18.00
2018-11-10T02:14:40.889Z,17.40
2018-11-10T02:15:40.900Z,17.40
2018-11-10T02:16:40.906Z,18.10
2018-11-10T02:17:40.862Z,17.80
2018-11-10T02:18:40.842Z,17.80
2018-11-10T02:19:40.834Z,17.80
2018-11-10T02:20:40.831Z,17.90
2018-11-10T02:21:40.802Z,16.50
2018-11-10T02:22:40.873Z,18.10
2018-11-10T02:23:40.791Z,17.10
2018-11-10T02:24:40.769Z,17.30
2018-11-10T02:25:40.762Z,17.10
2018-11-10T02:26:40.764Z,17.10
2018-11-10T02:27:40.734Z,16.70
2018-11-10T02:28:40.749Z,16.60
2018-11-10T02:29:40.740Z,16.30
2018-11-10T02:30:40.756Z,17.20
2018-11-10T02:31:40.684Z,17.70
2018-11-10T02:32:40.721Z,17.30
2018-11-10T02:33:40.673Z,18.00
2018-11-10T02:34:40.654Z,16.80
2018-11-10T02:35:40.656Z,16.70
2018-11-10T02:36:40.676Z,17.30
2018-11-10T02:37:40.625Z,17.00
2018-11-10T02:38:40.735Z,17.20
2018-11-10T02:39:40.638Z,17.60
2018-11-10T02:40:40.596Z,17.20
2018-11-10T02:41:40.582Z,17.10
2018-11-10T02:42:40.578Z,18.20
2018-11-10T02:43:40.618Z,17.20
2018-11-10T02:44:40.595Z,17.40
2018-11-10T02:45:40.535Z,17.80
2018-11-10T02:46:40.528Z,17.30
2018-11-10T02:47:40.510Z,17.40
2018-11-10T02:48:40.503Z,17.30
2018-11-10T02:49:40.513Z,17.30
2018-11-10T02:50:40.495Z,17.90
2018-11-10T02:51:40.472Z,17.60
2018-11-10T02:52:40.520Z,17.00
2018-11-10T02:53:40.451Z,16.10
2018-11-10T02:54:40.536Z,15.30
2018-11-10T02:55:40.439Z,14.50
2018-11-10T02:56:40.443Z,12.50
2018-11-10T02:57:40.416Z,13.40
2018-11-10T02:58:40.413Z,12.90
2018-11-10T02:59:40.382Z,11.80
2018-11-10T03:00:40.392Z,11.80
2018-11-10T03:01:40.356Z,11.30
2018-11-10T03:02:40.409Z,11.60
2018-11-10T03:03:40.365Z,11.50
2018-11-10T03:04:40.360Z,11.30
2018-11-10T03:05:40.324Z,11.40
2018-11-10T03:06:40.311Z,10.60
2018-11-10T03:07:40.336Z,11.60
2018-11-10T03:08:40.296Z,10.90
2018-11-10T03:09:40.279Z,10.80
2018-11-10T03:10:40.334Z,11.10
2018-11-10T03:11:40.351Z,10.80
2018-11-10T03:12:40.239Z,10.30
2018-11-10T03:13:40.226Z,9.80
2018-11-10T03:14:40.298Z,10.80
2018-11-10T03:15:40.202Z,10.30
2018-11-10T03:16:40.232Z,9.90
2018-11-10T03:17:40.174Z,10.20
2018-11-10T03:18:40.214Z,10.50
2018-11-10T03:19:40.154Z,10.40
2018-11-10T03:20:40.170Z,10.30
2018-11-10T03:21:40.141Z,10.20
2018-11-10T03:22:40.126Z,10.10
2018-11-10T03:23:40.106Z,10.10
2018-11-10T03:24:40.150Z,10.10
2018-11-10T03:25:40.203Z,10.20
2018-11-10T03:26:40.082Z,10.40
2018-11-10T03:27:40.073Z,10.70
2018-11-10T03:28:40.050Z,10.00
2018-11-10T03:29:40.080Z,10.10
2018-11-10T03:30:40.039Z,10.40
2018-11-10T03:31:40.089Z,10.40
2018-11-10T03:32:40.011Z,9.80
2018-11-10T03:33:39.997Z,10.10
2018-11-10T03:34:39.987Z,10.00
2018-11-10T03:35:39.977Z,10.20
2018-11-10T03:36:39.994Z,10.20
2018-11-10T03:37:39.955Z,10.80
2018-11-10T03:38:39.983Z,10.50
2018-11-10T03:39:39.938Z,10.00
2018-11-10T03:40:39.944Z,10.20
2018-11-10T03:41:39.927Z,9.60
2018-11-10T03:42:39.933Z,10.40
2018-11-10T03:43:39.884Z,10.00
2018-11-10T03:44:39.874Z,10.00
2018-11-10T03:45:39.905Z,10.20
2018-11-10T03:46:39.854Z,10.00
2018-11-10T03:47:39.853Z,10.30
2018-11-10T03:48:39.888Z,10.20
2018-11-10T03:49:39.863Z,10.00
2018-11-10T03:50:39.821Z,10.20
2018-11-10T03:51:39.810Z,9.30
2018-11-10T03:52:39.784Z,9.40
2018-11-10T03:53:39.848Z,9.80
2018-11-10T03:54:39.767Z,9.70
2018-11-10T03:55:39.749Z,9.90
2018-11-10T03:56:39.784Z,9.30
2018-11-10T03:57:39.727Z,9.40
2018-11-10T03:58:39.748Z,9.60
2018-11-10T03:59:39.728Z,9.60
2018-11-10T04:00:39.706Z,9.80
2018-11-10T04:01:39.681Z,9.80
2018-11-10T04:02:39.694Z,10.20
2018-11-10T04:03:39.722Z,9.40
2018-11-10T04:04:39.698Z,9.70
2018-11-10T04:05:39.634Z,9.30
2018-11-10T04:06:39.673Z,9.30
2018-11-10T04:07:39.620Z,9.60
2018-11-10T04:08:39.637Z,10.30
2018-11-10T04:09:39.604Z,9.20
2018-11-10T04:10:39.617Z,9.20
2018-11-10T04:11:39.578Z,9.90
2018-11-10T04:12:39.568Z,8.50
2018-11-10T04:13:39.574Z,8.90
2018-11-10T04:14:39.581Z,8.80
2018-11-10T04:15:39.582Z,8.90
2018-11-10T04:16:39.560Z,8.60
2018-11-10T04:17:39.517Z,8.60
2018-11-10T04:18:39.537Z,8.40
2018-11-10T04:19:39.501Z,8.40
2018-11-10T04:20:39.487Z,8.40
2018-11-10T04:21:39.475Z,8.40
2018-11-10T04:22:39.578Z,8.50
2018-11-10T04:23:39.446Z,8.70
2018-11-10T04:24:39.428Z,8.20
2018-11-10T04:25:39.459Z,8.70
2018-11-10T04:26:39.436Z,8.00
2018-11-10T04:27:39.444Z,8.20
2018-11-10T04:28:39.386Z,8.30
2018-11-10T04:29:39.372Z,8.40
2018-11-10T04:30:39.427Z,8.20
2018-11-10T04:31:39.400Z,7.80
2018-11-10T04:32:39.343Z,8.10
2018-11-10T04:33:39.473Z,8.00
2018-11-10T04:34:39.316Z,8.20
2018-11-10T04:35:39.365Z,7.60
2018-11-10T04:36:39.308Z,7.90
2018-11-10T04:37:39.284Z,7.30
2018-11-10T04:38:39.324Z,7.80
2018-11-10T04:39:39.366Z,7.70
2018-11-10T04:40:39.251Z,7.70
2018-11-10T04:41:39.248Z,7.70
2018-11-10T04:42:39.236Z,7.50
2018-11-10T04:43:39.216Z,7.60
2018-11-10T04:44:39.210Z,7.80
2018-11-10T04:45:39.210Z,7.50
2018-11-10T04:46:39.196Z,7.80
2018-11-10T04:47:39.203Z,7.80
2018-11-10T04:48:39.182Z,7.80
2018-11-10T04:49:39.223Z,7.80
2018-11-10T04:50:39.138Z,7.80
2018-11-10T04:51:39.228Z,7.30
2018-11-10T04:52:39.114Z,8.10
2018-11-10T04:53:39.191Z,7.90
2018-11-10T04:54:39.126Z,7.50
2018-11-10T04:55:39.101Z,7.50
2018-11-10T04:56:39.168Z,8.10
2018-11-10T04:57:39.067Z,8.20
2018-11-10T04:58:39.062Z,8.00
2018-11-10T04:59:39.056Z,8.20
2018-11-10T05:00:39.033Z,7.70
2018-11-10T05:01:39.030Z,8.00
2018-11-10T05:02:39.017Z,7.80
2018-11-10T05:03:39.027Z,8.00
2018-11-10T05:04:39.091Z,8.10
2018-11-10T05:05:39.006Z,8.00
2018-11-10T05:06:39.005Z,7.90
2018-11-10T05:07:38.957Z,7.50
2018-11-10T05:08:38.943Z,7.60
2018-11-10T05:09:39.004Z,7.80
2018-11-10T05:10:38.921Z,7.40
2018-11-10T05:11:38.906Z,8.10
2018-11-10T05:12:39.045Z,7.90
2018-11-10T05:13:38.879Z,7.90
2018-11-10T05:14:38.884Z,8.00
2018-11-10T05:15:38.866Z,7.80
2018-11-10T05:16:38.851Z,8.00
2018-11-10T05:17:38.916Z,7.70
2018-11-10T05:18:38.829Z,8.30
2018-11-10T05:19:38.840Z,7.60
2018-11-10T05:20:38.803Z,8.10
2018-11-10T05:21:38.858Z,7.70
2018-11-10T05:22:38.802Z,7.00
2018-11-10T05:23:38.797Z,7.30
2018-11-10T05:24:38.823Z,7.60
2018-11-10T05:25:38.762Z,7.20
2018-11-10T05:26:38.744Z,7.40
2018-11-10T05:27:38.731Z,7.40
2018-11-10T05:28:38.765Z,7.40
2018-11-10T05:29:38.703Z,7.60
2018-11-10T05:30:38.711Z,7.80
2018-11-10T05:31:38.691Z,7.60
2018-11-10T05:32:38.736Z,7.70
2018-11-10T05:33:38.669Z,8.00
2018-11-10T05:34:38.684Z,6.90
2018-11-10T05:35:38.679Z,7.90
2018-11-10T05:36:38.633Z,7.40
2018-11-10T05:37:38.665Z,7.50
2018-11-10T05:38:38.632Z,7.40
2018-11-10T05:39:38.644Z,6.90
2018-11-10T05:40:38.625Z,7.50
2018-11-10T05:41:38.572Z,7.00
2018-11-10T05:42:38.607Z,7.00
2018-11-10T05:43:38.591Z,6.60
2018-11-10T05:44:38.579Z,7.00
2018-11-10T05:45:38.555Z,6.60
2018-11-10T05:46:38.534Z,7.20
2018-11-10T05:47:38.512Z,6.40
2018-11-10T05:48:38.504Z,6.70
2018-11-10T05:49:38.501Z,6.70
2018-11-10T05:50:38.591Z,7.60
2018-11-10T05:51:38.515Z,6.10
2018-11-10T05:52:38.448Z,6.10
2018-11-10T05:53:38.437Z,6.00
2018-11-10T05:54:38.449Z,6.10
2018-11-10T05:55:38.430Z,6.00
2018-11-10T05:56:38.431Z,6.00
2018-11-10T05:57:38.466Z,6.30
2018-11-10T05:58:39.506Z,5.60
2018-11-10T06:01:11.072Z,4.40
2018-11-10T06:02:07.329Z,5.30
2018-11-10T06:03:05.385Z,5.00
2018-11-10T06:10:52.056Z,4.20
2018-11-10T06:13:03.132Z,4.50
2018-11-10T06:14:02.465Z,4.70
2018-11-10T06:15:02.425Z,4.70
2018-11-10T06:16:02.375Z,4.50
2018-11-10T06:18:19.443Z,5.10
2018-11-10T06:19:18.983Z,4.70
2018-11-10T06:20:28.583Z,4.60
2018-11-10T06:21:28.806Z,4.50
2018-11-10T06:23:50.563Z,4.10
2018-11-10T06:26:18.422Z,4.70
2018-11-10T06:28:28.869Z,4.20
2018-11-10T06:29:27.842Z,4.70
2018-11-10T06:31:42.038Z,4.10
2018-11-10T06:32:49.481Z,4.70
2018-11-10T06:33:41.565Z,5.00
2018-11-10T06:34:41.647Z,4.60
2018-11-10T06:35:41.686Z,4.80
2018-11-10T06:36:42.448Z,4.40
2018-11-10T06:37:41.563Z,4.80
2018-11-10T06:38:41.484Z,5.00
2018-11-10T06:39:44.045Z,4.60
2018-11-10T06:40:41.433Z,4.90
2018-11-10T06:41:43.052Z,4.30
2018-11-10T06:42:41.589Z,4.80
2018-11-10T06:43:41.525Z,4.90
2018-11-10T06:44:41.483Z,4.80
2018-11-10T06:45:41.539Z,4.70
2018-11-10T06:46:41.364Z,4.70
2018-11-10T06:47:41.412Z,4.80
2018-11-10T06:48:41.346Z,5.20
2018-11-10T06:49:41.523Z,4.80
2018-11-10T06:50:41.392Z,4.80
2018-11-10T06:51:41.331Z,5.20
2018-11-10T06:52:41.492Z,4.50
2018-11-10T06:53:41.404Z,5.20
2018-11-10T06:54:41.296Z,5.50
2018-11-10T06:55:41.348Z,4.80
2018-11-10T06:56:41.272Z,5.30
2018-11-10T06:57:41.293Z,5.00
2018-11-10T06:58:42.287Z,4.90
2018-11-10T06:59:41.236Z,5.30
2018-11-10T07:00:41.313Z,5.30
2018-11-10T07:01:49.914Z,5.80
2018-11-10T07:02:41.646Z,6.00
2018-11-10T07:03:41.416Z,5.70
2018-11-10T07:04:41.232Z,5.40
2018-11-10T07:05:41.304Z,5.70
2018-11-10T07:06:42.218Z,5.40
2018-11-10T07:07:41.137Z,6.00
2018-11-10T07:08:41.129Z,5.50
2018-11-10T07:09:41.261Z,5.90
2018-11-10T07:10:41.118Z,5.50
2018-11-10T07:11:41.079Z,5.80
2018-11-10T07:12:41.583Z,5.70
2018-11-10T07:13:41.058Z,5.70
2018-11-10T07:14:41.069Z,5.90
2018-11-10T07:15:41.077Z,6.40
2018-11-10T07:16:41.050Z,6.00
2018-11-10T07:17:41.644Z,6.00
2018-11-10T07:18:41.601Z,6.70
2018-11-10T07:19:41.065Z,6.00
2018-11-10T07:20:41.072Z,7.00
2018-11-10T07:21:40.968Z,6.80
2018-11-10T07:22:41.016Z,6.80
2018-11-10T07:23:40.947Z,6.80
2018-11-10T07:24:40.935Z,7.10
2018-11-10T07:25:40.973Z,7.00
2018-11-10T07:26:40.915Z,7.10
2018-11-10T07:27:40.907Z,7.00
2018-11-10T07:28:40.893Z,7.20
2018-11-10T07:29:40.881Z,7.80
2018-11-10T07:30:40.868Z,7.90
2018-11-10T07:31:40.886Z,7.80
2018-11-10T07:32:40.842Z,7.90
2018-11-10T07:33:40.879Z,7.50
2018-11-10T07:34:40.855Z,7.90
2018-11-10T07:35:40.801Z,7.90
2018-11-10T07:36:40.795Z,8.40
2018-11-10T07:37:40.789Z,8.00
2018-11-10T07:38:40.775Z,8.20
2018-11-10T07:39:40.769Z,7.70
2018-11-10T07:40:40.762Z,8.10
2018-11-10T07:41:40.741Z,8.10
2018-11-10T07:42:40.767Z,8.10
2018-11-10T07:43:40.716Z,8.50
2018-11-10T07:44:40.704Z,8.20
2018-11-10T07:45:40.702Z,7.80
2018-11-10T07:46:40.711Z,8.00
2018-11-10T07:47:40.668Z,8.10
2018-11-10T07:48:40.675Z,8.10
2018-11-10T07:49:40.653Z,8.20
2018-11-10T07:50:40.642Z,8.10
2018-11-10T07:51:40.627Z,8.50
2018-11-10T07:52:40.673Z,8.00
2018-11-10T07:53:40.599Z,8.50
2018-11-10T07:54:40.592Z,7.80
2018-11-10T07:55:40.645Z,8.20
2018-11-10T07:56:40.567Z,8.40
2018-11-10T07:57:40.567Z,8.30
2018-11-10T07:58:40.550Z,8.30
2018-11-10T07:59:40.676Z,8.30
2018-11-10T08:00:40.582Z,8.30
2018-11-10T08:01:40.550Z,8.30
2018-11-10T08:02:40.506Z,8.00
2018-11-10T08:03:40.528Z,8.30
2018-11-10T08:04:40.545Z,8.60
2018-11-10T08:05:40.468Z,8.40
2018-11-10T08:06:40.510Z,7.70
2018-11-10T08:07:40.445Z,7.70
2018-11-10T08:08:40.464Z,7.60
2018-11-10T08:09:40.457Z,8.20
2018-11-10T08:10:40.412Z,7.80
2018-11-10T08:11:40.458Z,7.70
2018-11-10T08:12:40.389Z,8.40
2018-11-10T08:13:40.375Z,9.00
2018-11-10T08:14:41.176Z,8.80
2018-11-10T08:15:40.441Z,8.90
2018-11-10T08:16:40.382Z,8.70
2018-11-10T08:17:40.414Z,8.50
2018-11-10T08:29:04.923Z,8.00
2018-11-10T08:30:04.626Z,9.00
2018-11-10T08:31:04.602Z,8.80
2018-11-10T08:32:04.509Z,8.90
2018-11-10T08:33:11.071Z,9.00
2018-11-10T08:34:04.438Z,8.50
2018-11-10T08:39:32.505Z,7.30
2018-11-10T08:40:33.118Z,7.90
2018-11-10T08:41:32.484Z,7.90
2018-11-10T08:42:32.284Z,7.90
2018-11-10T08:43:32.340Z,7.40
2018-11-10T08:44:32.264Z,7.60
2018-11-10T08:46:57.740Z,6.20
2018-11-10T08:47:57.291Z,7.00
2018-11-10T08:48:57.262Z,8.20
2018-11-10T08:49:57.123Z,8.40
2018-11-10T08:50:57.107Z,6.70
2018-11-10T08:51:57.373Z,7.70
2018-11-10T08:52:57.226Z,6.80
2018-11-10T08:53:57.139Z,7.10
2018-11-10T08:54:57.073Z,7.40
2018-11-10T08:55:57.053Z,7.70
2018-11-10T08:56:57.050Z,6.80
2018-11-10T08:57:57.133Z,6.80
2018-11-10T08:58:57.041Z,7.00
2018-11-10T08:59:57.005Z,6.90
2018-11-10T09:01:09.220Z,7.10
2018-11-10T09:01:58.089Z,6.90
2018-11-10T09:02:57.101Z,6.90
2018-11-10T09:03:57.122Z,7.30
2018-11-10T09:04:56.994Z,6.90
2018-11-10T09:05:57.039Z,6.40
2018-11-10T09:06:56.952Z,6.10
2018-11-10T09:07:56.946Z,6.20
2018-11-10T09:09:01.806Z,6.60
2018-11-10T09:09:57.039Z,6.70
2018-11-10T09:10:56.888Z,6.70
2018-11-10T09:11:56.904Z,7.20
2018-11-10T09:12:56.886Z,6.70
2018-11-10T09:13:56.856Z,6.50
2018-11-10T09:14:56.865Z,5.80
2018-11-10T09:15:56.867Z,6.60
2018-11-10T09:16:56.830Z,6.10
2018-11-10T09:17:57.185Z,6.30
2018-11-10T09:18:56.802Z,5.80
2018-11-10T09:19:56.792Z,6.00
2018-11-10T09:26:26.623Z,5.60
2018-11-10T09:27:26.115Z,5.80
2018-11-10T09:31:42.470Z,5.40
2018-11-10T09:32:41.268Z,5.60
2018-11-10T09:38:51.762Z,3.30
2018-11-10T09:39:51.370Z,4.90
2018-11-10T09:40:51.457Z,4.60
2018-11-10T09:41:51.288Z,4.70
2018-11-10T09:42:51.228Z,4.90
2018-11-10T09:43:51.335Z,4.70
2018-11-10T09:44:51.554Z,4.80
2018-11-10T09:45:51.232Z,6.50
2018-11-10T09:46:51.194Z,4.60
2018-11-10T09:47:51.177Z,5.00
2018-11-10T09:48:51.190Z,4.80
2018-11-10T09:49:51.901Z,5.90
2018-11-10T09:50:51.283Z,5.00
2018-11-10T09:51:51.192Z,4.60
2018-11-10T09:52:51.314Z,4.90
2018-11-10T09:53:51.146Z,5.30
2018-11-10T09:54:51.102Z,4.40
2018-11-10T09:55:51.127Z,4.60
2018-11-10T09:56:51.076Z,4.50
2018-11-10T09:57:51.068Z,4.10
2018-11-10T09:58:51.048Z,4.40
2018-11-10T09:59:51.078Z,4.40
2018-11-10T10:00:51.211Z,4.10
2018-11-10T10:01:51.518Z,4.50
2018-11-10T10:02:51.551Z,4.30
2018-11-10T10:03:51.170Z,4.20
2018-11-10T10:04:51.001Z,4.60
2018-11-10T10:05:50.977Z,4.20
2018-11-10T10:06:51.002Z,4.30
2018-11-10T10:09:04.411Z,4.70
2018-11-10T10:10:03.516Z,4.80
